sensor_id;sensor_type;location;lat;lon;timestamp;P1;durP1;ratioP1;P2;durP2;ratioP2
67191;SDS011;54120;53.504;49.426;2023-08-07T00:02:08;16.65;;;7.85;;
67191;SDS011;54120;53.504;49.426;2023-08-07T00:04:34;23.75;;;8.75;;
67191;SDS011;54120;53.504;49.426;2023-08-07T00:07:00;22.30;;;9.00;;
67191;SDS011;54120;53.504;49.426;2023-08-07T00:09:26;23.25;;;9.20;;
67191;SDS011;54120;53.504;49.426;2023-08-07T00:11:52;30.00;;;9.68;;
67191;SDS011;54120;53.504;49.426;2023-08-07T00:14:18;18.25;;;8.50;;
67191;SDS011;54120;53.504;49.426;2023-08-07T00:16:44;20.77;;;8.80;;
67191;SDS011;54120;53.504;49.426;2023-08-07T00:19:11;23.77;;;10.00;;
67191;SDS011;54120;53.504;49.426;2023-08-07T00:21:37;28.13;;;10.70;;
67191;SDS011;54120;53.504;49.426;2023-08-07T00:24:03;24.13;;;9.02;;
67191;SDS011;54120;53.504;49.426;2023-08-07T00:26:29;19.52;;;9.25;;
67191;SDS011;54120;53.504;49.426;2023-08-07T00:28:57;25.45;;;9.05;;
67191;SDS011;54120;53.504;49.426;2023-08-07T00:31:23;21.33;;;7.93;;
67191;SDS011;54120;53.504;49.426;2023-08-07T00:33:49;19.55;;;8.68;;
67191;SDS011;54120;53.504;49.426;2023-08-07T00:36:19;20.40;;;8.30;;
67191;SDS011;54120;53.504;49.426;2023-08-07T00:38:46;16.55;;;7.53;;
67191;SDS011;54120;53.504;49.426;2023-08-07T00:41:12;21.85;;;8.35;;
67191;SDS011;54120;53.504;49.426;2023-08-07T00:43:38;17.15;;;7.45;;
67191;SDS011;54120;53.504;49.426;2023-08-07T00:46:04;14.32;;;6.15;;
67191;SDS011;54120;53.504;49.426;2023-08-07T00:48:31;12.18;;;5.50;;
67191;SDS011;54120;53.504;49.426;2023-08-07T00:50:57;10.88;;;5.20;;
67191;SDS011;54120;53.504;49.426;2023-08-07T00:53:23;12.52;;;5.60;;
67191;SDS011;54120;53.504;49.426;2023-08-07T00:55:49;15.05;;;4.82;;
67191;SDS011;54120;53.504;49.426;2023-08-07T00:58:16;15.55;;;4.97;;
67191;SDS011;54120;53.504;49.426;2023-08-07T01:00:43;15.07;;;4.80;;
67191;SDS011;54120;53.504;49.426;2023-08-07T01:03:09;12.93;;;4.40;;
67191;SDS011;54120;53.504;49.426;2023-08-07T01:05:39;14.48;;;5.40;;
67191;SDS011;54120;53.504;49.426;2023-08-07T01:08:05;12.90;;;5.00;;
67191;SDS011;54120;53.504;49.426;2023-08-07T01:15:38;15.15;;;5.03;;
67191;SDS011;54120;53.504;49.426;2023-08-07T01:18:04;13.98;;;4.72;;
67191;SDS011;54120;53.504;49.426;2023-08-07T01:20:33;10.77;;;4.60;;
67191;SDS011;54120;53.504;49.426;2023-08-07T01:23:00;8.13;;;4.47;;
67191;SDS011;54120;53.504;49.426;2023-08-07T01:25:25;9.98;;;4.07;;
67191;SDS011;54120;53.504;49.426;2023-08-07T01:30:29;10.77;;;4.18;;
67191;SDS011;54120;53.504;49.426;2023-08-07T01:33:03;11.15;;;4.60;;
67191;SDS011;54120;53.504;49.426;2023-08-07T01:35:41;13.05;;;4.10;;
67191;SDS011;54120;53.504;49.426;2023-08-07T01:38:10;12.35;;;4.32;;
67191;SDS011;54120;53.504;49.426;2023-08-07T01:40:38;13.05;;;4.55;;
67191;SDS011;54120;53.504;49.426;2023-08-07T01:43:05;13.32;;;5.05;;
67191;SDS011;54120;53.504;49.426;2023-08-07T01:45:32;10.30;;;5.20;;
67191;SDS011;54120;53.504;49.426;2023-08-07T01:47:58;12.95;;;4.88;;
67191;SDS011;54120;53.504;49.426;2023-08-07T01:50:25;17.75;;;6.20;;
67191;SDS011;54120;53.504;49.426;2023-08-07T01:52:51;18.30;;;7.18;;
67191;SDS011;54120;53.504;49.426;2023-08-07T01:55:17;19.60;;;7.80;;
67191;SDS011;54120;53.504;49.426;2023-08-07T01:57:44;22.77;;;10.00;;
67191;SDS011;54120;53.504;49.426;2023-08-07T02:00:10;24.85;;;10.27;;
67191;SDS011;54120;53.504;49.426;2023-08-07T02:02:36;25.27;;;10.55;;
67191;SDS011;54120;53.504;49.426;2023-08-07T02:05:03;26.88;;;10.95;;
67191;SDS011;54120;53.504;49.426;2023-08-07T02:07:30;28.35;;;10.45;;
67191;SDS011;54120;53.504;49.426;2023-08-07T02:09:57;23.27;;;10.80;;
67191;SDS011;54120;53.504;49.426;2023-08-07T02:12:23;24.15;;;10.75;;
67191;SDS011;54120;53.504;49.426;2023-08-07T02:14:51;26.40;;;10.05;;
67191;SDS011;54120;53.504;49.426;2023-08-07T02:17:17;30.13;;;11.43;;
67191;SDS011;54120;53.504;49.426;2023-08-07T02:19:42;25.65;;;10.50;;
67191;SDS011;54120;53.504;49.426;2023-08-07T02:22:09;24.42;;;9.65;;
67191;SDS011;54120;53.504;49.426;2023-08-07T02:24:35;21.55;;;8.10;;
67191;SDS011;54120;53.504;49.426;2023-08-07T02:27:01;17.05;;;7.15;;
67191;SDS011;54120;53.504;49.426;2023-08-07T02:29:26;23.30;;;6.05;;
67191;SDS011;54120;53.504;49.426;2023-08-07T02:31:53;18.23;;;5.13;;
67191;SDS011;54120;53.504;49.426;2023-08-07T02:34:19;26.42;;;5.25;;
67191;SDS011;54120;53.504;49.426;2023-08-07T02:36:45;17.67;;;5.18;;
67191;SDS011;54120;53.504;49.426;2023-08-07T02:39:13;17.50;;;4.25;;
67191;SDS011;54120;53.504;49.426;2023-08-07T02:41:39;16.98;;;4.00;;
67191;SDS011;54120;53.504;49.426;2023-08-07T02:44:05;17.40;;;4.30;;
67191;SDS011;54120;53.504;49.426;2023-08-07T02:46:31;22.38;;;5.38;;
67191;SDS011;54120;53.504;49.426;2023-08-07T02:48:57;21.15;;;6.55;;
67191;SDS011;54120;53.504;49.426;2023-08-07T02:51:23;17.95;;;7.80;;
67191;SDS011;54120;53.504;49.426;2023-08-07T02:53:49;15.43;;;7.38;;
67191;SDS011;54120;53.504;49.426;2023-08-07T02:56:15;32.38;;;7.53;;
67191;SDS011;54120;53.504;49.426;2023-08-07T02:58:41;16.00;;;7.10;;
67191;SDS011;54120;53.504;49.426;2023-08-07T03:01:07;18.38;;;6.97;;
67191;SDS011;54120;53.504;49.426;2023-08-07T03:03:34;15.88;;;5.75;;
67191;SDS011;54120;53.504;49.426;2023-08-07T03:06:00;16.73;;;5.28;;
67191;SDS011;54120;53.504;49.426;2023-08-07T03:08:26;10.30;;;4.53;;
67191;SDS011;54120;53.504;49.426;2023-08-07T03:10:53;12.70;;;4.35;;
67191;SDS011;54120;53.504;49.426;2023-08-07T03:13:21;17.67;;;4.30;;
67191;SDS011;54120;53.504;49.426;2023-08-07T03:15:48;10.85;;;4.00;;
67191;SDS011;54120;53.504;49.426;2023-08-07T03:18:16;17.10;;;4.03;;
67191;SDS011;54120;53.504;49.426;2023-08-07T03:20:42;12.48;;;3.50;;
67191;SDS011;54120;53.504;49.426;2023-08-07T03:23:09;13.07;;;3.20;;
67191;SDS011;54120;53.504;49.426;2023-08-07T03:25:36;11.55;;;3.40;;
67191;SDS011;54120;53.504;49.426;2023-08-07T03:28:02;14.52;;;3.38;;
67191;SDS011;54120;53.504;49.426;2023-08-07T03:30:29;13.75;;;3.72;;
67191;SDS011;54120;53.504;49.426;2023-08-07T03:32:55;8.43;;;3.83;;
67191;SDS011;54120;53.504;49.426;2023-08-07T03:35:21;25.80;;;4.03;;
67191;SDS011;54120;53.504;49.426;2023-08-07T03:37:47;10.35;;;4.20;;
67191;SDS011;54120;53.504;49.426;2023-08-07T03:40:13;21.40;;;7.10;;
67191;SDS011;54120;53.504;49.426;2023-08-07T03:42:39;17.20;;;7.22;;
67191;SDS011;54120;53.504;49.426;2023-08-07T03:45:05;16.70;;;6.70;;
67191;SDS011;54120;53.504;49.426;2023-08-07T03:47:32;21.33;;;7.55;;
67191;SDS011;54120;53.504;49.426;2023-08-07T03:49:58;11.10;;;6.22;;
67191;SDS011;54120;53.504;49.426;2023-08-07T03:52:24;20.23;;;7.90;;
67191;SDS011;54120;53.504;49.426;2023-08-07T03:54:50;19.70;;;8.25;;
67191;SDS011;54120;53.504;49.426;2023-08-07T03:57:16;15.65;;;6.80;;
67191;SDS011;54120;53.504;49.426;2023-08-07T03:59:42;15.63;;;5.97;;
67191;SDS011;54120;53.504;49.426;2023-08-07T04:02:08;17.52;;;7.30;;
67191;SDS011;54120;53.504;49.426;2023-08-07T04:04:34;18.55;;;6.03;;
67191;SDS011;54120;53.504;49.426;2023-08-07T04:07:00;12.40;;;5.30;;
67191;SDS011;54120;53.504;49.426;2023-08-07T04:09:26;14.85;;;4.80;;
67191;SDS011;54120;53.504;49.426;2023-08-07T04:11:52;13.82;;;4.60;;
67191;SDS011;54120;53.504;49.426;2023-08-07T04:14:18;9.73;;;4.15;;
67191;SDS011;54120;53.504;49.426;2023-08-07T04:16:44;10.43;;;3.47;;
67191;SDS011;54120;53.504;49.426;2023-08-07T04:19:10;22.88;;;3.70;;
67191;SDS011;54120;53.504;49.426;2023-08-07T04:21:36;12.07;;;7.75;;
67191;SDS011;54120;53.504;49.426;2023-08-07T04:24:02;8.23;;;2.72;;
67191;SDS011;54120;53.504;49.426;2023-08-07T04:26:35;12.55;;;2.80;;
67191;SDS011;54120;53.504;49.426;2023-08-07T04:29:02;5.53;;;2.75;;
67191;SDS011;54120;53.504;49.426;2023-08-07T04:31:28;8.38;;;2.72;;
67191;SDS011;54120;53.504;49.426;2023-08-07T04:33:57;9.32;;;3.08;;
67191;SDS011;54120;53.504;49.426;2023-08-07T04:36:23;11.60;;;2.63;;
67191;SDS011;54120;53.504;49.426;2023-08-07T04:38:50;6.93;;;2.30;;
67191;SDS011;54120;53.504;49.426;2023-08-07T04:41:16;5.45;;;2.10;;
67191;SDS011;54120;53.504;49.426;2023-08-07T04:43:42;14.13;;;3.97;;
67191;SDS011;54120;53.504;49.426;2023-08-07T04:46:09;8.05;;;2.67;;
67191;SDS011;54120;53.504;49.426;2023-08-07T04:48:37;3.35;;;1.88;;
67191;SDS011;54120;53.504;49.426;2023-08-07T04:51:04;28.27;;;3.50;;
67191;SDS011;54120;53.504;49.426;2023-08-07T04:53:30;18.48;;;2.90;;
67191;SDS011;54120;53.504;49.426;2023-08-07T04:55:58;5.35;;;3.10;;
67191;SDS011;54120;53.504;49.426;2023-08-07T04:58:29;5.88;;;3.15;;
67191;SDS011;54120;53.504;49.426;2023-08-07T05:00:56;2.13;;;1.50;;
67191;SDS011;54120;53.504;49.426;2023-08-07T05:03:23;3.03;;;2.20;;
67191;SDS011;54120;53.504;49.426;2023-08-07T05:05:49;2.85;;;2.00;;
67191;SDS011;54120;53.504;49.426;2023-08-07T05:08:16;6.03;;;1.20;;
67191;SDS011;54120;53.504;49.426;2023-08-07T05:10:43;1.95;;;1.50;;
67191;SDS011;54120;53.504;49.426;2023-08-07T05:13:09;7.70;;;1.70;;
67191;SDS011;54120;53.504;49.426;2023-08-07T05:15:35;3.03;;;1.30;;
67191;SDS011;54120;53.504;49.426;2023-08-07T05:18:02;2.70;;;1.05;;
67191;SDS011;54120;53.504;49.426;2023-08-07T05:20:28;1.98;;;1.10;;
67191;SDS011;54120;53.504;49.426;2023-08-07T05:22:54;3.72;;;1.75;;
67191;SDS011;54120;53.504;49.426;2023-08-07T05:25:21;5.00;;;1.40;;
67191;SDS011;54120;53.504;49.426;2023-08-07T05:27:47;4.53;;;1.85;;
67191;SDS011;54120;53.504;49.426;2023-08-07T05:30:14;5.20;;;2.08;;
67191;SDS011;54120;53.504;49.426;2023-08-07T05:32:40;5.70;;;2.00;;
67191;SDS011;54120;53.504;49.426;2023-08-07T05:35:07;3.13;;;1.70;;
67191;SDS011;54120;53.504;49.426;2023-08-07T05:37:34;2.63;;;1.70;;
67191;SDS011;54120;53.504;49.426;2023-08-07T05:40:01;5.03;;;1.52;;
67191;SDS011;54120;53.504;49.426;2023-08-07T05:42:28;3.22;;;1.40;;
67191;SDS011;54120;53.504;49.426;2023-08-07T05:44:54;2.88;;;1.80;;
67191;SDS011;54120;53.504;49.426;2023-08-07T05:47:20;3.83;;;1.85;;
67191;SDS011;54120;53.504;49.426;2023-08-07T05:49:47;3.33;;;1.38;;
67191;SDS011;54120;53.504;49.426;2023-08-07T05:52:14;3.08;;;1.17;;
67191;SDS011;54120;53.504;49.426;2023-08-07T05:54:40;3.08;;;1.33;;
67191;SDS011;54120;53.504;49.426;2023-08-07T05:57:06;4.25;;;1.35;;
67191;SDS011;54120;53.504;49.426;2023-08-07T05:59:33;2.55;;;1.17;;
67191;SDS011;54120;53.504;49.426;2023-08-07T06:02:00;1.98;;;1.40;;
67191;SDS011;54120;53.504;49.426;2023-08-07T06:04:28;1.73;;;1.30;;
67191;SDS011;54120;53.504;49.426;2023-08-07T06:06:55;1.77;;;1.20;;
67191;SDS011;54120;53.504;49.426;2023-08-07T06:09:21;1.50;;;1.20;;
67191;SDS011;54120;53.504;49.426;2023-08-07T06:11:48;2.28;;;1.10;;
67191;SDS011;54120;53.504;49.426;2023-08-07T06:14:15;1.33;;;1.20;;
67191;SDS011;54120;53.504;49.426;2023-08-07T06:16:42;2.30;;;1.30;;
67191;SDS011;54120;53.504;49.426;2023-08-07T06:19:08;5.90;;;1.52;;
67191;SDS011;54120;53.504;49.426;2023-08-07T06:21:35;4.22;;;1.60;;
67191;SDS011;54120;53.504;49.426;2023-08-07T06:24:02;3.67;;;1.40;;
67191;SDS011;54120;53.504;49.426;2023-08-07T06:26:28;8.32;;;2.03;;
67191;SDS011;54120;53.504;49.426;2023-08-07T06:28:54;4.13;;;1.23;;
67191;SDS011;54120;53.504;49.426;2023-08-07T06:31:21;3.67;;;1.08;;
67191;SDS011;54120;53.504;49.426;2023-08-07T06:33:49;2.25;;;1.40;;
67191;SDS011;54120;53.504;49.426;2023-08-07T06:36:15;4.28;;;1.27;;
67191;SDS011;54120;53.504;49.426;2023-08-07T06:38:42;1.30;;;1.20;;
67191;SDS011;54120;53.504;49.426;2023-08-07T06:41:08;9.35;;;1.50;;
67191;SDS011;54120;53.504;49.426;2023-08-07T06:43:35;2.75;;;1.67;;
67191;SDS011;54120;53.504;49.426;2023-08-07T06:46:01;2.05;;;1.40;;
67191;SDS011;54120;53.504;49.426;2023-08-07T06:48:28;2.55;;;1.20;;
67191;SDS011;54120;53.504;49.426;2023-08-07T06:50:54;3.00;;;1.20;;
67191;SDS011;54120;53.504;49.426;2023-08-07T06:53:21;1.30;;;1.10;;
67191;SDS011;54120;53.504;49.426;2023-08-07T06:55:47;2.28;;;1.45;;
67191;SDS011;54120;53.504;49.426;2023-08-07T06:58:14;1.27;;;1.15;;
67191;SDS011;54120;53.504;49.426;2023-08-07T07:00:40;3.08;;;1.10;;
67191;SDS011;54120;53.504;49.426;2023-08-07T07:03:07;6.90;;;1.33;;
67191;SDS011;54120;53.504;49.426;2023-08-07T07:05:35;6.80;;;1.40;;
67191;SDS011;54120;53.504;49.426;2023-08-07T07:08:02;4.95;;;1.58;;
67191;SDS011;54120;53.504;49.426;2023-08-07T07:10:29;3.22;;;1.50;;
67191;SDS011;54120;53.504;49.426;2023-08-07T07:12:59;3.00;;;1.55;;
67191;SDS011;54120;53.504;49.426;2023-08-07T07:15:25;3.08;;;1.55;;
67191;SDS011;54120;53.504;49.426;2023-08-07T07:17:51;2.47;;;1.00;;
67191;SDS011;54120;53.504;49.426;2023-08-07T07:20:18;1.88;;;1.73;;
67191;SDS011;54120;53.504;49.426;2023-08-07T07:22:44;4.68;;;1.75;;
67191;SDS011;54120;53.504;49.426;2023-08-07T07:25:10;2.10;;;1.38;;
67191;SDS011;54120;53.504;49.426;2023-08-07T07:27:38;3.33;;;1.60;;
67191;SDS011;54120;53.504;49.426;2023-08-07T07:30:08;2.85;;;1.52;;
67191;SDS011;54120;53.504;49.426;2023-08-07T07:32:35;2.13;;;1.00;;
67191;SDS011;54120;53.504;49.426;2023-08-07T07:35:02;1.40;;;1.30;;
67191;SDS011;54120;53.504;49.426;2023-08-07T07:37:30;1.50;;;1.40;;
67191;SDS011;54120;53.504;49.426;2023-08-07T07:39:57;3.72;;;1.20;;
67191;SDS011;54120;53.504;49.426;2023-08-07T07:42:23;1.58;;;1.30;;
67191;SDS011;54120;53.504;49.426;2023-08-07T07:44:50;1.33;;;1.23;;
67191;SDS011;54120;53.504;49.426;2023-08-07T07:47:16;3.72;;;1.48;;
67191;SDS011;54120;53.504;49.426;2023-08-07T07:49:45;34.40;;;3.05;;
67191;SDS011;54120;53.504;49.426;2023-08-07T07:52:15;17.25;;;2.30;;
67191;SDS011;54120;53.504;49.426;2023-08-07T07:54:41;5.75;;;1.50;;
67191;SDS011;54120;53.504;49.426;2023-08-07T07:57:07;2.25;;;1.40;;
67191;SDS011;54120;53.504;49.426;2023-08-07T07:59:34;2.45;;;1.42;;
67191;SDS011;54120;53.504;49.426;2023-08-07T08:02:00;3.45;;;1.33;;
67191;SDS011;54120;53.504;49.426;2023-08-07T08:04:27;2.80;;;1.55;;
67191;SDS011;54120;53.504;49.426;2023-08-07T08:06:53;2.33;;;1.60;;
67191;SDS011;54120;53.504;49.426;2023-08-07T08:09:20;2.42;;;1.15;;
67191;SDS011;54120;53.504;49.426;2023-08-07T08:11:46;2.42;;;1.67;;
67191;SDS011;54120;53.504;49.426;2023-08-07T08:14:12;2.13;;;1.50;;
67191;SDS011;54120;53.504;49.426;2023-08-07T08:16:39;2.28;;;1.70;;
67191;SDS011;54120;53.504;49.426;2023-08-07T08:19:05;2.90;;;1.50;;
67191;SDS011;54120;53.504;49.426;2023-08-07T08:21:35;2.05;;;1.50;;
67191;SDS011;54120;53.504;49.426;2023-08-07T08:24:01;4.78;;;1.50;;
67191;SDS011;54120;53.504;49.426;2023-08-07T08:26:27;19.58;;;2.40;;
67191;SDS011;54120;53.504;49.426;2023-08-07T08:28:54;5.60;;;1.77;;
67191;SDS011;54120;53.504;49.426;2023-08-07T08:31:20;2.85;;;1.40;;
67191;SDS011;54120;53.504;49.426;2023-08-07T08:33:47;2.50;;;1.45;;
67191;SDS011;54120;53.504;49.426;2023-08-07T08:36:14;1.30;;;1.20;;
67191;SDS011;54120;53.504;49.426;2023-08-07T08:38:40;2.90;;;1.60;;
67191;SDS011;54120;53.504;49.426;2023-08-07T08:41:06;2.95;;;1.90;;
67191;SDS011;54120;53.504;49.426;2023-08-07T08:43:35;9.95;;;1.70;;
67191;SDS011;54120;53.504;49.426;2023-08-07T08:46:04;1.75;;;1.40;;
67191;SDS011;54120;53.504;49.426;2023-08-07T08:48:32;3.45;;;1.50;;
67191;SDS011;54120;53.504;49.426;2023-08-07T08:51:02;3.28;;;1.40;;
67191;SDS011;54120;53.504;49.426;2023-08-07T08:53:30;4.55;;;1.55;;
67191;SDS011;54120;53.504;49.426;2023-08-07T08:55:57;3.50;;;1.35;;
67191;SDS011;54120;53.504;49.426;2023-08-07T08:58:26;1.92;;;1.58;;
67191;SDS011;54120;53.504;49.426;2023-08-07T09:00:53;3.88;;;1.50;;
67191;SDS011;54120;53.504;49.426;2023-08-07T09:03:20;5.07;;;1.30;;
67191;SDS011;54120;53.504;49.426;2023-08-07T09:05:47;1.75;;;1.38;;
67191;SDS011;54120;53.504;49.426;2023-08-07T09:08:18;3.83;;;1.50;;
67191;SDS011;54120;53.504;49.426;2023-08-07T09:10:45;1.40;;;1.30;;
67191;SDS011;54120;53.504;49.426;2023-08-07T09:13:14;3.55;;;1.42;;
67191;SDS011;54120;53.504;49.426;2023-08-07T09:15:42;2.25;;;1.75;;
67191;SDS011;54120;53.504;49.426;2023-08-07T09:18:13;1.42;;;1.20;;
67191;SDS011;54120;53.504;49.426;2023-08-07T09:20:40;3.28;;;1.80;;
67191;SDS011;54120;53.504;49.426;2023-08-07T09:23:15;4.45;;;1.83;;
67191;SDS011;54120;53.504;49.426;2023-08-07T09:25:49;8.07;;;1.63;;
67191;SDS011;54120;53.504;49.426;2023-08-07T09:28:25;2.95;;;1.50;;
67191;SDS011;54120;53.504;49.426;2023-08-07T09:30:56;4.32;;;1.30;;
67191;SDS011;54120;53.504;49.426;2023-08-07T09:33:26;3.35;;;1.65;;
67191;SDS011;54120;53.504;49.426;2023-08-07T09:36:00;3.20;;;1.40;;
67191;SDS011;54120;53.504;49.426;2023-08-07T09:41:00;1.38;;;1.27;;
67191;SDS011;54120;53.504;49.426;2023-08-07T09:43:29;1.30;;;1.20;;
67191;SDS011;54120;53.504;49.426;2023-08-07T09:46:02;1.60;;;1.50;;
67191;SDS011;54120;53.504;49.426;2023-08-07T09:48:29;5.50;;;1.45;;
67191;SDS011;54120;53.504;49.426;2023-08-07T09:50:58;23.60;;;3.50;;
67191;SDS011;54120;53.504;49.426;2023-08-07T09:53:29;11.10;;;1.75;;
67191;SDS011;54120;53.504;49.426;2023-08-07T09:55:55;4.60;;;1.30;;
67191;SDS011;54120;53.504;49.426;2023-08-07T09:58:22;28.92;;;2.65;;
67191;SDS011;54120;53.504;49.426;2023-08-07T10:00:50;1.88;;;1.20;;
67191;SDS011;54120;53.504;49.426;2023-08-07T10:03:19;4.15;;;1.20;;
67191;SDS011;54120;53.504;49.426;2023-08-07T10:05:45;1.90;;;1.20;;
67191;SDS011;54120;53.504;49.426;2023-08-07T10:08:12;4.50;;;1.35;;
67191;SDS011;54120;53.504;49.426;2023-08-07T10:10:38;1.98;;;1.52;;
67191;SDS011;54120;53.504;49.426;2023-08-07T10:13:06;4.30;;;1.33;;
67191;SDS011;54120;53.504;49.426;2023-08-07T10:15:34;2.45;;;1.00;;
67191;SDS011;54120;53.504;49.426;2023-08-07T10:18:03;5.78;;;1.33;;
67191;SDS011;54120;53.504;49.426;2023-08-07T10:20:30;1.77;;;1.38;;
67191;SDS011;54120;53.504;49.426;2023-08-07T10:23:00;3.13;;;1.40;;
67191;SDS011;54120;53.504;49.426;2023-08-07T10:25:31;5.68;;;1.33;;
67191;SDS011;54120;53.504;49.426;2023-08-07T10:27:57;10.68;;;2.28;;
67191;SDS011;54120;53.504;49.426;2023-08-07T10:30:26;2.28;;;1.77;;
67191;SDS011;54120;53.504;49.426;2023-08-07T10:32:52;1.70;;;1.40;;
67191;SDS011;54120;53.504;49.426;2023-08-07T10:35:29;3.67;;;1.13;;
67191;SDS011;54120;53.504;49.426;2023-08-07T10:38:05;3.08;;;1.70;;
67191;SDS011;54120;53.504;49.426;2023-08-07T10:43:36;1.25;;;1.10;;
67191;SDS011;54120;53.504;49.426;2023-08-07T10:46:05;1.70;;;1.20;;
67191;SDS011;54120;53.504;49.426;2023-08-07T10:48:40;1.58;;;1.30;;
67191;SDS011;54120;53.504;49.426;2023-08-07T10:51:08;4.40;;;1.27;;
67191;SDS011;54120;53.504;49.426;2023-08-07T10:53:40;1.67;;;1.30;;
67191;SDS011;54120;53.504;49.426;2023-08-07T10:56:10;3.13;;;1.30;;
67191;SDS011;54120;53.504;49.426;2023-08-07T10:58:41;4.82;;;1.40;;
67191;SDS011;54120;53.504;49.426;2023-08-07T11:01:21;2.05;;;1.30;;
67191;SDS011;54120;53.504;49.426;2023-08-07T11:03:57;3.78;;;1.95;;
67191;SDS011;54120;53.504;49.426;2023-08-07T11:06:30;1.45;;;1.27;;
67191;SDS011;54120;53.504;49.426;2023-08-07T11:09:02;2.47;;;1.30;;
67191;SDS011;54120;53.504;49.426;2023-08-07T11:11:40;2.05;;;1.10;;
67191;SDS011;54120;53.504;49.426;2023-08-07T11:14:18;1.30;;;1.20;;
67191;SDS011;54120;53.504;49.426;2023-08-07T11:16:45;3.03;;;1.20;;
67191;SDS011;54120;53.504;49.426;2023-08-07T11:19:13;1.73;;;1.35;;
67191;SDS011;54120;53.504;49.426;2023-08-07T11:21:42;2.05;;;1.60;;
67191;SDS011;54120;53.504;49.426;2023-08-07T11:24:12;2.80;;;1.70;;
67191;SDS011;54120;53.504;49.426;2023-08-07T11:26:42;2.92;;;1.70;;
67191;SDS011;54120;53.504;49.426;2023-08-07T11:29:10;2.13;;;1.40;;
67191;SDS011;54120;53.504;49.426;2023-08-07T11:31:36;2.08;;;1.20;;
67191;SDS011;54120;53.504;49.426;2023-08-07T11:34:03;1.63;;;1.10;;
67191;SDS011;54120;53.504;49.426;2023-08-07T11:36:29;2.90;;;1.25;;
67191;SDS011;54120;53.504;49.426;2023-08-07T11:38:57;5.95;;;1.52;;
67191;SDS011;54120;53.504;49.426;2023-08-07T11:41:23;7.80;;;1.85;;
67191;SDS011;54120;53.504;49.426;2023-08-07T11:43:50;5.22;;;1.50;;
67191;SDS011;54120;53.504;49.426;2023-08-07T11:46:16;1.88;;;1.60;;
67191;SDS011;54120;53.504;49.426;2023-08-07T11:48:43;1.45;;;1.30;;
67191;SDS011;54120;53.504;49.426;2023-08-07T11:51:10;5.45;;;1.33;;
67191;SDS011;54120;53.504;49.426;2023-08-07T11:53:38;3.53;;;1.30;;
67191;SDS011;54120;53.504;49.426;2023-08-07T11:56:09;1.45;;;1.35;;
67191;SDS011;54120;53.504;49.426;2023-08-07T12:01:11;2.30;;;1.75;;
67191;SDS011;54120;53.504;49.426;2023-08-07T12:03:41;1.63;;;1.52;;
67191;SDS011;54120;53.504;49.426;2023-08-07T12:06:09;3.35;;;1.50;;
67191;SDS011;54120;53.504;49.426;2023-08-07T12:08:37;5.85;;;1.83;;
67191;SDS011;54120;53.504;49.426;2023-08-07T12:11:06;2.45;;;1.80;;
67191;SDS011;54120;53.504;49.426;2023-08-07T12:13:38;5.65;;;1.65;;
67191;SDS011;54120;53.504;49.426;2023-08-07T12:16:08;1.90;;;1.42;;
67191;SDS011;54120;53.504;49.426;2023-08-07T12:18:35;1.77;;;1.20;;
67191;SDS011;54120;53.504;49.426;2023-08-07T12:21:04;4.00;;;1.40;;
67191;SDS011;54120;53.504;49.426;2023-08-07T12:23:33;1.30;;;1.20;;
67191;SDS011;54120;53.504;49.426;2023-08-07T12:26:00;4.95;;;1.58;;
67191;SDS011;54120;53.504;49.426;2023-08-07T12:28:27;2.80;;;1.40;;
67191;SDS011;54120;53.504;49.426;2023-08-07T12:30:54;3.08;;;1.30;;
67191;SDS011;54120;53.504;49.426;2023-08-07T12:33:22;2.08;;;1.60;;
67191;SDS011;54120;53.504;49.426;2023-08-07T12:35:49;3.38;;;1.50;;
67191;SDS011;54120;53.504;49.426;2023-08-07T12:38:17;2.28;;;1.50;;
67191;SDS011;54120;53.504;49.426;2023-08-07T12:40:44;2.03;;;1.83;;
67191;SDS011;54120;53.504;49.426;2023-08-07T12:43:11;7.15;;;1.80;;
67191;SDS011;54120;53.504;49.426;2023-08-07T12:45:38;2.92;;;1.15;;
67191;SDS011;54120;53.504;49.426;2023-08-07T12:48:05;4.22;;;1.60;;
67191;SDS011;54120;53.504;49.426;2023-08-07T12:50:31;2.50;;;1.25;;
67191;SDS011;54120;53.504;49.426;2023-08-07T12:52:58;2.10;;;1.35;;
67191;SDS011;54120;53.504;49.426;2023-08-07T12:55:25;1.55;;;1.00;;
67191;SDS011;54120;53.504;49.426;2023-08-07T12:57:55;1.38;;;1.10;;
67191;SDS011;54120;53.504;49.426;2023-08-07T13:00:23;1.60;;;1.10;;
67191;SDS011;54120;53.504;49.426;2023-08-07T13:02:50;4.22;;;1.58;;
67191;SDS011;54120;53.504;49.426;2023-08-07T13:05:17;2.03;;;1.25;;
67191;SDS011;54120;53.504;49.426;2023-08-07T13:07:46;5.88;;;1.83;;
67191;SDS011;54120;53.504;49.426;2023-08-07T13:10:15;3.97;;;1.60;;
67191;SDS011;54120;53.504;49.426;2023-08-07T13:12:44;5.32;;;1.55;;
67191;SDS011;54120;53.504;49.426;2023-08-07T13:15:13;2.05;;;1.40;;
67191;SDS011;54120;53.504;49.426;2023-08-07T13:17:43;1.42;;;1.33;;
67191;SDS011;54120;53.504;49.426;2023-08-07T13:20:13;3.10;;;1.13;;
67191;SDS011;54120;53.504;49.426;2023-08-07T13:22:40;3.03;;;2.15;;
67191;SDS011;54120;53.504;49.426;2023-08-07T13:25:08;4.45;;;1.70;;
67191;SDS011;54120;53.504;49.426;2023-08-07T13:27:38;1.83;;;1.50;;
67191;SDS011;54120;53.504;49.426;2023-08-07T13:30:06;15.63;;;2.55;;
67191;SDS011;54120;53.504;49.426;2023-08-07T13:32:33;2.38;;;1.55;;
67191;SDS011;54120;53.504;49.426;2023-08-07T13:35:00;4.68;;;1.40;;
67191;SDS011;54120;53.504;49.426;2023-08-07T13:37:29;4.53;;;1.40;;
67191;SDS011;54120;53.504;49.426;2023-08-07T13:39:55;1.30;;;1.20;;
67191;SDS011;54120;53.504;49.426;2023-08-07T13:42:25;2.22;;;1.23;;
67191;SDS011;54120;53.504;49.426;2023-08-07T13:44:54;2.88;;;1.23;;
67191;SDS011;54120;53.504;49.426;2023-08-07T13:47:21;3.60;;;1.73;;
67191;SDS011;54120;53.504;49.426;2023-08-07T13:49:47;6.10;;;1.63;;
67191;SDS011;54120;53.504;49.426;2023-08-07T13:52:15;6.05;;;1.73;;
67191;SDS011;54120;53.504;49.426;2023-08-07T13:54:43;3.70;;;1.67;;
67191;SDS011;54120;53.504;49.426;2023-08-07T13:57:09;2.63;;;1.80;;
67191;SDS011;54120;53.504;49.426;2023-08-07T13:59:36;3.38;;;1.40;;
67191;SDS011;54120;53.504;49.426;2023-08-07T14:02:02;1.52;;;1.42;;
67191;SDS011;54120;53.504;49.426;2023-08-07T14:04:32;3.42;;;1.73;;
67191;SDS011;54120;53.504;49.426;2023-08-07T14:06:59;1.95;;;1.60;;
67191;SDS011;54120;53.504;49.426;2023-08-07T14:09:25;2.38;;;2.17;;
67191;SDS011;54120;53.504;49.426;2023-08-07T14:11:52;2.50;;;1.40;;
67191;SDS011;54120;53.504;49.426;2023-08-07T14:14:18;3.63;;;2.58;;
67191;SDS011;54120;53.504;49.426;2023-08-07T14:16:45;3.90;;;1.92;;
67191;SDS011;54120;53.504;49.426;2023-08-07T14:19:12;2.53;;;1.70;;
67191;SDS011;54120;53.504;49.426;2023-08-07T14:21:39;2.30;;;1.77;;
67191;SDS011;54120;53.504;49.426;2023-08-07T14:24:05;3.42;;;1.75;;
67191;SDS011;54120;53.504;49.426;2023-08-07T14:26:32;2.60;;;1.30;;
67191;SDS011;54120;53.504;49.426;2023-08-07T14:28:58;3.53;;;1.20;;
67191;SDS011;54120;53.504;49.426;2023-08-07T14:31:27;1.38;;;1.20;;
67191;SDS011;54120;53.504;49.426;2023-08-07T14:33:53;2.45;;;1.30;;
67191;SDS011;54120;53.504;49.426;2023-08-07T14:36:22;2.30;;;1.50;;
67191;SDS011;54120;53.504;49.426;2023-08-07T14:38:48;5.40;;;2.13;;
67191;SDS011;54120;53.504;49.426;2023-08-07T14:41:18;2.90;;;2.20;;
67191;SDS011;54120;53.504;49.426;2023-08-07T14:43:45;4.13;;;1.85;;
67191;SDS011;54120;53.504;49.426;2023-08-07T14:46:16;3.13;;;2.10;;
67191;SDS011;54120;53.504;49.426;2023-08-07T14:48:44;6.35;;;2.15;;